Time;durP1;ratioP1;P1;durP2;ratioP2;P2;SDS_P1;SDS_P2;PMS_P1;PMS_P2;Temp;Humidity;BMP_temperature;BMP_pressure;BME280_temperature;BME280_humidity;BME280_pressure;Samples;Min_cycle;Max_cycle;Signal;HPM_P1;HPM_P2
2022/07/27 00:01:55;;;;;;;2.92;2.00;;;;;;;;;;5970457;29;20845;-81
2022/07/27 00:04:56;;;;;;;2.70;1.90;;;;;;;;;;5982941;29;20053;-81
2022/07/27 00:07:58;;;;;;;2.83;2.20;;;;;;;;;;5998450;29;20046;-81
2022/07/27 00:11:00;;;;;;;2.28;2.05;;;;;;;;;;6011606;29;20061;-81
2022/07/27 00:14:01;;;;;;;2.67;2.17;;;;;;;;;;6007969;29;20053;-81
2022/07/27 00:17:03;;;;;;;3.55;2.47;;;;;;;;;;5985037;29;20114;-81
2022/07/27 00:20:05;;;;;;;4.63;3.13;;;;;;;;;;5997205;29;20077;-81
2022/07/27 00:23:07;;;;;;;2.93;2.63;;;;;;;;;;5986541;29;20085;-81
2022/07/27 00:26:09;;;;;;;4.18;2.55;;;;;;;;;;5985209;29;21081;-81
2022/07/27 00:29:11;;;;;;;3.80;2.40;;;;;;;;;;5985001;29;20060;-81
2022/07/27 00:32:13;;;;;;;2.50;2.20;;;;;;;;;;6000773;29;20057;-81
2022/07/27 00:35:15;;;;;;;3.58;2.55;;;;;;;;;;6005070;29;20521;-81
2022/07/27 00:38:17;;;;;;;2.92;2.42;;;;;;;;;;5986648;29;20050;-81
2022/07/27 00:41:18;;;;;;;3.65;2.80;;;;;;;;;;5987302;29;20061;-81
2022/07/27 00:44:30;;;;;;;2.58;2.13;;;;;;;;;;5999280;29;20153;-81
2022/07/27 00:47:32;;;;;;;4.78;3.05;;;;;;;;;;5984996;29;20422;-81
2022/07/27 00:50:34;;;;;;;2.45;2.20;;;;;;;;;;6002065;29;20069;-81
2022/07/27 00:53:36;;;;;;;1.83;1.70;;;;;;;;;;5986247;29;20081;-81
2022/07/27 00:56:39;;;;;;;2.70;2.00;;;;;;;;;;5982865;29;20050;-81
2022/07/27 00:59:41;;;;;;;2.92;2.03;;;;;;;;;;5986134;29;20043;-81
2022/07/27 01:02:43;;;;;;;3.05;2.00;;;;;;;;;;5998325;29;20076;-81
2022/07/27 01:05:48;;;;;;;2.50;2.10;;;;;;;;;;5984155;29;20060;-81
2022/07/27 01:08:50;;;;;;;3.70;2.53;;;;;;;;;;5999581;29;20514;-81
2022/07/27 01:11:52;;;;;;;2.65;2.30;;;;;;;;;;5999819;29;20137;-81
2022/07/27 01:14:56;;;;;;;2.95;2.30;;;;;;;;;;5977560;29;20510;-81
2022/07/27 01:17:58;;;;;;;3.75;2.30;;;;;;;;;;6006762;29;20162;-82
2022/07/27 01:21:01;;;;;;;4.28;2.80;;;;;;;;;;5985711;29;20088;-81
2022/07/27 01:24:03;;;;;;;4.13;2.70;;;;;;;;;;6001671;29;20129;-81
2022/07/27 01:27:06;;;;;;;3.22;2.63;;;;;;;;;;5988056;29;20070;-81
2022/07/27 01:30:28;;;;;;;3.38;2.30;;;;;;;;;;5994940;29;20136;-81
2022/07/27 01:33:30;;;;;;;6.30;2.80;;;;;;;;;;5997271;29;20058;-81
2022/07/27 01:36:32;;;;;;;4.18;2.60;;;;;;;;;;6001174;29;20175;-81
2022/07/27 01:39:33;;;;;;;3.80;2.85;;;;;;;;;;5975050;29;20568;-81
2022/07/27 01:42:35;;;;;;;4.10;3.20;;;;;;;;;;5989693;29;20127;-81
2022/07/27 01:45:38;;;;;;;5.30;2.47;;;;;;;;;;5989440;29;20078;-81
2022/07/27 01:48:40;;;;;;;3.42;2.60;;;;;;;;;;5987584;29;20069;-81
2022/07/27 01:51:42;;;;;;;3.70;3.00;;;;;;;;;;5966853;29;20075;-81
2022/07/27 01:54:43;;;;;;;5.90;3.00;;;;;;;;;;5967540;29;20133;-80
2022/07/27 01:57:45;;;;;;;4.70;3.05;;;;;;;;;;5983677;29;20149;-81
2022/07/27 02:00:48;;;;;;;3.10;2.55;;;;;;;;;;5985589;29;20058;-81
2022/07/27 02:03:49;;;;;;;5.32;2.67;;;;;;;;;;6000889;29;20073;-81
2022/07/27 02:06:52;;;;;;;3.80;2.95;;;;;;;;;;5982300;29;20082;-81
2022/07/27 02:09:54;;;;;;;2.78;2.38;;;;;;;;;;6001105;29;20163;-81
2022/07/27 02:12:56;;;;;;;6.10;2.75;;;;;;;;;;5998452;29;20118;-81
2022/07/27 02:15:57;;;;;;;3.78;2.78;;;;;;;;;;5982810;29;20050;-81
2022/07/27 02:18:59;;;;;;;4.70;2.80;;;;;;;;;;5989983;29;20042;-81
2022/07/27 02:22:05;;;;;;;3.55;2.78;;;;;;;;;;5984195;29;20118;-81
2022/07/27 02:25:07;;;;;;;3.58;2.28;;;;;;;;;;5971415;29;20097;-81
2022/07/27 02:28:09;;;;;;;4.38;2.83;;;;;;;;;;5986456;29;20142;-81
2022/07/27 02:31:11;;;;;;;6.13;2.30;;;;;;;;;;5972094;29;20056;-81
2022/07/27 02:34:12;;;;;;;2.33;2.13;;;;;;;;;;5987385;29;20050;-81
2022/07/27 02:37:14;;;;;;;3.33;2.58;;;;;;;;;;5971108;29;20053;-81
2022/07/27 02:40:18;;;;;;;4.93;3.05;;;;;;;;;;6002627;29;20077;-81
2022/07/27 02:43:20;;;;;;;3.22;2.55;;;;;;;;;;6003786;29;20046;-81
2022/07/27 02:46:23;;;;;;;5.57;2.95;;;;;;;;;;5998218;29;20179;-81
2022/07/27 02:49:25;;;;;;;2.60;2.20;;;;;;;;;;5968867;29;20078;-81
2022/07/27 02:52:27;;;;;;;3.38;2.58;;;;;;;;;;5986443;29;20138;-81
2022/07/27 02:55:29;;;;;;;3.78;2.40;;;;;;;;;;6000919;29;20046;-81
2022/07/27 02:58:30;;;;;;;3.72;2.60;;;;;;;;;;5967446;29;20130;-81
2022/07/27 03:01:32;;;;;;;6.20;2.90;;;;;;;;;;6004274;29;20054;-81
2022/07/27 03:04:34;;;;;;;3.47;2.60;;;;;;;;;;6001257;29;20058;-82
2022/07/27 03:07:36;;;;;;;3.25;2.40;;;;;;;;;;5987510;29;20046;-82
2022/07/27 03:10:38;;;;;;;2.80;2.50;;;;;;;;;;5999883;29;20053;-82
2022/07/27 03:13:40;;;;;;;5.80;3.22;;;;;;;;;;5980894;29;20054;-82
2022/07/27 03:16:42;;;;;;;6.10;3.55;;;;;;;;;;5959407;29;20112;-82
2022/07/27 03:19:44;;;;;;;6.22;4.18;;;;;;;;;;5995826;29;20054;-82
2022/07/27 03:22:45;;;;;;;7.20;3.80;;;;;;;;;;6000133;29;20449;-83
2022/07/27 03:25:47;;;;;;;5.30;3.58;;;;;;;;;;5997668;29;20110;-82
2022/07/27 03:28:51;;;;;;;6.82;3.53;;;;;;;;;;5990571;29;20051;-83
2022/07/27 03:31:55;;;;;;;9.13;4.43;;;;;;;;;;5995635;29;20433;-83
2022/07/27 03:34:57;;;;;;;7.00;4.32;;;;;;;;;;5989106;29;20038;-83
2022/07/27 03:37:58;;;;;;;6.68;4.15;;;;;;;;;;5999929;29;20042;-83
2022/07/27 03:41:01;;;;;;;10.48;5.55;;;;;;;;;;5995052;29;20046;-83
2022/07/27 03:44:03;;;;;;;9.27;5.10;;;;;;;;;;5996864;29;20407;-83
2022/07/27 03:47:04;;;;;;;6.95;4.47;;;;;;;;;;5997438;29;20054;-83
2022/07/27 03:50:07;;;;;;;8.57;4.10;;;;;;;;;;5997331;29;20049;-83
2022/07/27 03:53:08;;;;;;;11.02;6.85;;;;;;;;;;5982989;29;20086;-83
2022/07/27 03:56:10;;;;;;;11.82;9.48;;;;;;;;;;5983699;29;20134;-81
2022/07/27 03:59:12;;;;;;;3.60;2.75;;;;;;;;;;5995868;29;20050;-81
2022/07/27 04:02:14;;;;;;;9.45;6.53;;;;;;;;;;5997244;29;20195;-81
2022/07/27 04:05:16;;;;;;;13.15;11.13;;;;;;;;;;6002308;29;20069;-81
2022/07/27 04:08:20;;;;;;;14.75;11.13;;;;;;;;;;5994527;29;20066;-81
2022/07/27 04:11:21;;;;;;;12.57;10.40;;;;;;;;;;5985167;29;20069;-82
2022/07/27 04:14:26;;;;;;;12.77;7.82;;;;;;;;;;5967950;29;20087;-82
2022/07/27 04:17:27;;;;;;;16.35;12.55;;;;;;;;;;5983344;29;20058;-82
2022/07/27 04:20:49;;;;;;;9.75;7.72;;;;;;;;;;6001364;29;20131;-82
2022/07/27 04:23:51;;;;;;;14.52;12.80;;;;;;;;;;5980610;29;20054;-82
2022/07/27 04:26:52;;;;;;;14.23;10.15;;;;;;;;;;5985451;29;20069;-82
2022/07/27 04:29:54;;;;;;;9.70;6.35;;;;;;;;;;5996293;29;20077;-82
2022/07/27 04:32:56;;;;;;;11.38;6.30;;;;;;;;;;5993524;29;20106;-83
2022/07/27 04:35:58;;;;;;;13.10;8.32;;;;;;;;;;5986121;29;20057;-85
2022/07/27 04:39:00;;;;;;;13.98;12.13;;;;;;;;;;5975236;29;20074;-83
2022/07/27 04:42:02;;;;;;;14.63;13.07;;;;;;;;;;6004408;29;20070;-83
2022/07/27 04:45:04;;;;;;;10.70;8.55;;;;;;;;;;6002102;29;20053;-84
2022/07/27 04:48:07;;;;;;;7.85;6.57;;;;;;;;;;5986051;29;20056;-85
2022/07/27 04:51:13;;;;;;;10.43;6.47;;;;;;;;;;5969893;29;20046;-85
2022/07/27 04:54:14;;;;;;;11.75;7.47;;;;;;;;;;5994692;29;20050;-85
2022/07/27 04:57:16;;;;;;;10.23;9.13;;;;;;;;;;5999213;29;20507;-81
2022/07/27 05:00:18;;;;;;;13.32;11.57;;;;;;;;;;5974929;29;20053;-82
2022/07/27 05:03:19;;;;;;;17.83;14.65;;;;;;;;;;5980405;29;20607;-82
2022/07/27 05:06:21;;;;;;;14.75;12.13;;;;;;;;;;5978899;29;20065;-84
2022/07/27 05:09:23;;;;;;;15.45;9.45;;;;;;;;;;5997656;29;20050;-84
2022/07/27 05:12:25;;;;;;;11.25;8.45;;;;;;;;;;6000841;29;20125;-84
2022/07/27 05:15:26;;;;;;;18.55;16.60;;;;;;;;;;5982124;29;20084;-83
2022/07/27 05:18:28;;;;;;;9.07;6.35;;;;;;;;;;6001904;29;20516;-83
2022/07/27 05:21:30;;;;;;;14.95;10.15;;;;;;;;;;5996336;29;20106;-84
2022/07/27 05:24:31;;;;;;;16.92;10.93;;;;;;;;;;5986102;29;20046;-85
2022/07/27 05:27:34;;;;;;;15.38;10.35;;;;;;;;;;5988471;29;20042;-84
2022/07/27 05:30:36;;;;;;;;;;;;;;;;;;5964272;29;20053;-85
2022/07/27 05:33:38;;;;;;;17.58;12.82;;;;;;;;;;5990692;29;19932;-85
2022/07/27 05:36:39;;;;;;;12.52;9.32;;;;;;;;;;5972693;29;20489;-85
2022/07/27 05:39:41;;;;;;;17.02;10.70;;;;;;;;;;6000869;29;20050;-85
2022/07/27 05:42:43;;;;;;;16.23;11.68;;;;;;;;;;5967754;29;20540;-85
2022/07/27 05:45:45;;;;;;;15.57;8.05;;;;;;;;;;5968165;29;20623;-83
2022/07/27 05:48:47;;;;;;;10.13;7.00;;;;;;;;;;6002055;29;20410;-83
2022/07/27 05:51:49;;;;;;;14.65;10.15;;;;;;;;;;5973596;29;20061;-82
2022/07/27 05:54:51;;;;;;;10.60;7.07;;;;;;;;;;5987500;29;20122;-83
2022/07/27 05:57:53;;;;;;;19.40;11.30;;;;;;;;;;5996812;29;20050;-84
2022/07/27 06:00:57;;;;;;;19.13;14.00;;;;;;;;;;5981498;29;20054;-84
2022/07/27 06:03:59;;;;;;;13.93;11.00;;;;;;;;;;6005030;29;20050;-87
2022/07/27 06:10:22;;;;;;;17.05;12.77;;;;;;;;;;5984961;29;20070;-82
2022/07/27 06:13:24;;;;;;;20.35;15.93;;;;;;;;;;5969177;29;20528;-82
2022/07/27 06:16:29;;;;;;;20.42;15.88;;;;;;;;;;5969475;29;20050;-82
2022/07/27 06:19:31;;;;;;;12.27;8.05;;;;;;;;;;5992114;29;20072;-80
2022/07/27 06:22:49;;;;;;;18.95;15.05;;;;;;;;;;6001043;29;20106;-80
2022/07/27 06:25:50;;;;;;;20.40;15.05;;;;;;;;;;5979671;29;20069;-85
2022/07/27 06:28:57;;;;;;;19.67;15.27;;;;;;;;;;5937024;29;20190;-83
2022/07/27 06:31:59;;;;;;;10.32;7.50;;;;;;;;;;5964378;29;20505;-83
2022/07/27 06:35:02;;;;;;;9.93;8.52;;;;;;;;;;5995414;29;20057;-84
2022/07/27 06:38:04;;;;;;;8.73;6.65;;;;;;;;;;5984896;29;20053;-83
2022/07/27 06:41:06;;;;;;;12.05;8.57;;;;;;;;;;6003767;29;20206;-84
2022/07/27 06:44:07;;;;;;;16.65;12.65;;;;;;;;;;6000897;29;20471;-83
2022/07/27 06:47:09;;;;;;;22.27;17.38;;;;;;;;;;5987119;29;20045;-83
2022/07/27 06:50:11;;;;;;;16.77;14.95;;;;;;;;;;6002029;29;20532;-84
2022/07/27 06:53:13;;;;;;;18.67;15.02;;;;;;;;;;5984228;29;20050;-83
2022/07/27 06:56:21;;;;;;;21.38;16.10;;;;;;;;;;5991678;29;20418;-83
2022/07/27 06:59:22;;;;;;;13.60;10.90;;;;;;;;;;5988779;29;20545;-84
2022/07/27 07:02:24;;;;;;;15.00;12.38;;;;;;;;;;5999237;29;20092;-83
2022/07/27 07:05:26;;;;;;;12.85;9.55;;;;;;;;;;5987406;29;20121;-85
2022/07/27 07:08:27;;;;;;;12.63;9.50;;;;;;;;;;5999506;29;20065;-83
2022/07/27 07:11:29;;;;;;;9.07;7.40;;;;;;;;;;5986116;29;20053;-84
2022/07/27 07:14:31;;;;;;;14.98;11.68;;;;;;;;;;5984694;29;20630;-84
2022/07/27 07:17:33;;;;;;;15.57;10.85;;;;;;;;;;6001100;29;20190;-83
2022/07/27 07:20:36;;;;;;;8.07;7.22;;;;;;;;;;5985668;29;20050;-83
2022/07/27 07:23:38;;;;;;;12.65;9.13;;;;;;;;;;5976716;29;20083;-83
2022/07/27 07:26:40;;;;;;;11.38;9.27;;;;;;;;;;6004395;29;20174;-85
2022/07/27 07:29:41;;;;;;;8.15;5.05;;;;;;;;;;6001332;29;20062;-84
2022/07/27 07:32:43;;;;;;;11.27;8.32;;;;;;;;;;6002222;29;20079;-84
2022/07/27 07:35:44;;;;;;;10.60;6.88;;;;;;;;;;5985610;29;20149;-83
2022/07/27 07:39:06;;;;;;;15.52;12.45;;;;;;;;;;5996797;29;21669;-83
2022/07/27 07:42:08;;;;;;;21.02;16.65;;;;;;;;;;6001004;29;20084;-83
2022/07/27 07:45:11;;;;;;;17.38;12.13;;;;;;;;;;5986752;29;20046;-83
2022/07/27 07:48:13;;;;;;;25.55;22.83;;;;;;;;;;6005015;29;20867;-82
2022/07/27 07:51:14;;;;;;;19.83;15.80;;;;;;;;;;5997596;29;20487;-83
2022/07/27 07:54:16;;;;;;;27.75;24.45;;;;;;;;;;5972211;29;20066;-82
2022/07/27 07:57:18;;;;;;;31.25;24.88;;;;;;;;;;6002702;29;20050;-83
2022/07/27 08:00:21;;;;;;;11.13;9.48;;;;;;;;;;6006223;29;20426;-83
2022/07/27 08:03:22;;;;;;;;;;;;;;;;;;5989023;29;20046;-83
2022/07/27 08:06:24;;;;;;;6.97;4.30;;;;;;;;;;5976300;29;20297;-83
2022/07/27 08:09:27;;;;;;;7.82;7.03;;;;;;;;;;5984328;29;20087;-83
2022/07/27 08:12:28;;;;;;;13.18;7.25;;;;;;;;;;5982689;29;20124;-83
2022/07/27 08:15:30;;;;;;;31.15;25.67;;;;;;;;;;5984349;29;20053;-82
2022/07/27 08:18:36;;;;;;;38.03;31.08;;;;;;;;;;5985510;29;20049;-83
2022/07/27 08:21:38;;;;;;;17.63;14.20;;;;;;;;;;5981809;29;20177;-83
2022/07/27 08:24:40;;;;;;;30.83;26.75;;;;;;;;;;5997598;29;20050;-82
2022/07/27 08:27:41;;;;;;;21.23;18.10;;;;;;;;;;6001052;29;20129;-82
2022/07/27 08:30:48;;;;;;;19.17;15.93;;;;;;;;;;5987208;29;20408;-83
2022/07/27 08:33:50;;;;;;;17.65;14.73;;;;;;;;;;5987355;29;20058;-83
2022/07/27 08:36:51;;;;;;;26.70;22.77;;;;;;;;;;5985158;29;20058;-82
2022/07/27 08:39:53;;;;;;;19.65;15.45;;;;;;;;;;6001273;29;20087;-83
2022/07/27 08:43:16;;;;;;;10.45;7.72;;;;;;;;;;5982158;29;20062;-82
2022/07/27 08:46:27;;;;;;;19.67;13.23;;;;;;;;;;5989348;29;20046;-82
2022/07/27 08:49:29;;;;;;;8.15;4.20;;;;;;;;;;5998969;29;20578;-83
2022/07/27 08:52:44;;;;;;;8.20;6.28;;;;;;;;;;5994200;29;20056;-82
2022/07/27 08:55:46;;;;;;;4.85;2.47;;;;;;;;;;5982090;29;20061;-80
2022/07/27 08:58:48;;;;;;;5.05;2.88;;;;;;;;;;5995047;29;20132;-83
2022/07/27 09:01:50;;;;;;;3.88;1.23;;;;;;;;;;5977750;29;20137;-83
2022/07/27 09:04:52;;;;;;;3.65;2.22;;;;;;;;;;5971416;29;20124;-83
2022/07/27 09:07:53;;;;;;;11.02;9.95;;;;;;;;;;6002966;29;20066;-84
2022/07/27 09:10:56;;;;;;;22.42;18.63;;;;;;;;;;5989609;29;20573;-83
2022/07/27 09:14:07;;;;;;;23.42;17.10;;;;;;;;;;5976919;29;20630;-82
2022/07/27 09:17:22;;;;;;;27.10;23.05;;;;;;;;;;5980662;29;20561;-82
2022/07/27 09:20:44;;;;;;;26.98;24.13;;;;;;;;;;5967770;29;20121;-83
2022/07/27 09:24:04;;;;;;;25.13;21.92;;;;;;;;;;5991280;29;20084;-83
2022/07/27 09:27:29;;;;;;;15.80;12.13;;;;;;;;;;6000580;29;20046;-84
2022/07/27 09:30:31;;;;;;;22.98;20.70;;;;;;;;;;5995407;29;20066;-84
2022/07/27 09:34:00;;;;;;;20.05;17.70;;;;;;;;;;5999867;29;20057;-84
2022/07/27 09:37:05;;;;;;;23.17;19.05;;;;;;;;;;5977725;29;20540;-83
2022/07/27 09:40:21;;;;;;;26.00;20.83;;;;;;;;;;5973042;29;20045;-83
2022/07/27 09:43:27;;;;;;;16.95;14.20;;;;;;;;;;5989682;29;20509;-84
2022/07/27 09:46:49;;;;;;;29.95;25.88;;;;;;;;;;5988473;29;20076;-83
2022/07/27 09:49:52;;;;;;;56.38;50.40;;;;;;;;;;5989692;29;20045;-83
2022/07/27 09:53:17;;;;;;;31.92;25.02;;;;;;;;;;5989588;29;20045;-82
2022/07/27 09:56:39;;;;;;;55.22;46.08;;;;;;;;;;5995975;29;20050;-83
2022/07/27 09:59:40;;;;;;;41.92;36.92;;;;;;;;;;6000718;29;20087;-83
2022/07/27 10:02:42;;;;;;;20.90;15.98;;;;;;;;;;5989235;29;20125;-83
2022/07/27 10:05:44;;;;;;;7.90;5.90;;;;;;;;;;6003596;29;20049;-82
2022/07/27 10:08:48;;;;;;;7.70;6.43;;;;;;;;;;5979651;29;20065;-82
2022/07/27 10:11:50;;;;;;;17.63;14.88;;;;;;;;;;5997956;29;20110;-83
2022/07/27 10:14:52;;;;;;;17.63;15.90;;;;;;;;;;5983212;29;20553;-82
2022/07/27 10:18:02;;;;;;;9.27;7.95;;;;;;;;;;6003358;29;20050;-83
2022/07/27 10:21:09;;;;;;;9.80;7.93;;;;;;;;;;5990108;29;20050;-82
2022/07/27 10:24:33;;;;;;;17.35;13.98;;;;;;;;;;5992693;29;20578;-83
2022/07/27 10:27:35;;;;;;;19.92;16.52;;;;;;;;;;6004499;29;20060;-83
2022/07/27 10:30:37;;;;;;;14.90;12.63;;;;;;;;;;6005970;29;20077;-84
2022/07/27 10:33:40;;;;;;;37.20;30.00;;;;;;;;;;6009459;29;20061;-82
2022/07/27 10:36:45;;;;;;;33.83;30.00;;;;;;;;;;5981368;29;20046;-83
2022/07/27 10:39:51;;;;;;;16.70;14.95;;;;;;;;;;5994361;29;20161;-82
2022/07/27 10:43:19;;;;;;;15.25;11.80;;;;;;;;;;6004852;29;20073;-83
2022/07/27 10:46:21;;;;;;;13.50;10.52;;;;;;;;;;5976218;29;20042;-82
2022/07/27 10:49:29;;;;;;;19.00;16.77;;;;;;;;;;6009934;29;20050;-82
2022/07/27 10:52:58;;;;;;;18.02;14.73;;;;;;;;;;6007650;29;20046;-83
2022/07/27 10:56:00;;;;;;;27.75;23.05;;;;;;;;;;5976798;29;20070;-82
2022/07/27 10:59:02;;;;;;;18.63;15.27;;;;;;;;;;5996609;29;20073;-82
2022/07/27 11:02:16;;;;;;;13.48;11.88;;;;;;;;;;5997656;29;20087;-82
2022/07/27 11:05:18;;;;;;;43.53;38.75;;;;;;;;;;6001935;29;20128;-81
2022/07/27 11:08:44;;;;;;;40.10;33.90;;;;;;;;;;5980733;29;20042;-82
2022/07/27 11:11:48;;;;;;;66.25;56.33;;;;;;;;;;6000711;29;20054;-81
2022/07/27 11:14:53;;;;;;;60.05;53.60;;;;;;;;;;5979924;29;20535;-80
2022/07/27 11:17:55;;;;;;;74.53;62.17;;;;;;;;;;5995512;29;20053;-80
2022/07/27 11:21:21;;;;;;;84.22;67.45;;;;;;;;;;6000468;29;20060;-81
2022/07/27 11:24:28;;;;;;;43.67;39.47;;;;;;;;;;5983943;29;20048;-80
2022/07/27 11:27:30;;;;;;;47.28;42.33;;;;;;;;;;6003008;29;20052;-81
2022/07/27 11:30:32;;;;;;;29.88;26.95;;;;;;;;;;5981893;29;20057;-80
2022/07/27 11:33:34;;;;;;;33.80;30.20;;;;;;;;;;5985100;29;20066;-81
2022/07/27 11:36:42;;;;;;;7.38;5.82;;;;;;;;;;5985341;29;20529;-81
2022/07/27 11:39:45;;;;;;;8.90;7.25;;;;;;;;;;5970318;29;20061;-81
2022/07/27 11:43:08;;;;;;;6.25;4.78;;;;;;;;;;6001619;29;20050;-81
2022/07/27 11:46:27;;;;;;;15.88;12.98;;;;;;;;;;5987631;29;20057;-79
2022/07/27 11:49:31;;;;;;;21.70;17.85;;;;;;;;;;5977766;29;20431;-80
2022/07/27 11:52:33;;;;;;;20.00;16.88;;;;;;;;;;5985457;29;20050;-81
2022/07/27 11:55:35;;;;;;;31.27;27.87;;;;;;;;;;5993639;29;20204;-80
2022/07/27 11:58:58;;;;;;;26.73;21.88;;;;;;;;;;5977916;29;20426;-81
2022/07/27 12:02:13;;;;;;;23.90;19.05;;;;;;;;;;6003407;29;20437;-81
2022/07/27 12:05:15;;;;;;;21.40;17.77;;;;;;;;;;5999888;29;20566;-81
2022/07/27 12:08:17;;;;;;;25.63;22.93;;;;;;;;;;5979089;29;20061;-81
2022/07/27 12:11:43;;;;;;;15.68;13.02;;;;;;;;;;5999503;29;20677;-83
2022/07/27 12:15:15;;;;;;;5.45;3.95;;;;;;;;;;5977056;29;20054;-81
2022/07/27 12:18:43;;;;;;;3.40;2.17;;;;;;;;;;6001319;29;20738;-81
2022/07/27 12:21:54;;;;;;;6.03;4.18;;;;;;;;;;5981361;29;20191;-80
2022/07/27 12:24:58;;;;;;;7.65;5.22;;;;;;;;;;5982690;29;20050;-81
2022/07/27 12:28:04;;;;;;;3.78;2.50;;;;;;;;;;5979614;29;20142;-81
2022/07/27 12:31:15;;;;;;;3.90;3.03;;;;;;;;;;5985139;29;20060;-81
2022/07/27 12:34:17;;;;;;;10.85;5.03;;;;;;;;;;5995688;29;20159;-81
2022/07/27 12:37:20;;;;;;;12.07;7.93;;;;;;;;;;6002437;29;20096;-82
2022/07/27 12:40:22;;;;;;;12.23;8.50;;;;;;;;;;5997148;29;20053;-80
2022/07/27 12:43:24;;;;;;;9.93;7.97;;;;;;;;;;5987630;29;20149;-82
2022/07/27 12:46:26;;;;;;;;;;;;;;;;;;5987696;29;20182;-81
2022/07/27 12:49:38;;;;;;;23.25;17.38;;;;;;;;;;5995717;29;19929;-81
2022/07/27 12:52:52;;;;;;;20.40;16.75;;;;;;;;;;5987897;29;20084;-80
2022/07/27 12:55:56;;;;;;;27.90;22.65;;;;;;;;;;5980944;29;20038;-80
2022/07/27 12:59:02;;;;;;;22.00;16.15;;;;;;;;;;5982434;29;20638;-77
2022/07/27 13:02:04;;;;;;;27.42;23.02;;;;;;;;;;5997117;29;20054;-77
2022/07/27 13:05:08;;;;;;;27.40;24.40;;;;;;;;;;5997571;29;20045;-76
2022/07/27 13:08:09;;;;;;;17.02;12.75;;;;;;;;;;5995016;29;20490;-77
2022/07/27 13:11:11;;;;;;;13.57;10.63;;;;;;;;;;5979842;29;20132;-77
2022/07/27 13:14:14;;;;;;;14.07;12.43;;;;;;;;;;6000022;29;20106;-77
2022/07/27 13:17:16;;;;;;;58.90;52.70;;;;;;;;;;5998473;29;20045;-78
2022/07/27 13:20:18;;;;;;;90.68;70.38;;;;;;;;;;5982585;29;20582;-77
2022/07/27 13:23:20;;;;;;;109.03;82.05;;;;;;;;;;5998265;29;20074;-77
2022/07/27 13:26:22;;;;;;;45.97;40.83;;;;;;;;;;5994200;29;20046;-78
2022/07/27 13:29:28;;;;;;;41.20;33.22;;;;;;;;;;5966157;29;20050;-77
2022/07/27 13:32:29;;;;;;;48.73;43.03;;;;;;;;;;5977989;29;20161;-78
2022/07/27 13:35:31;;;;;;;10.52;6.72;;;;;;;;;;5974018;29;20255;-78
2022/07/27 13:38:33;;;;;;;3.85;1.95;;;;;;;;;;5998824;29;20118;-77
2022/07/27 13:41:36;;;;;;;5.70;3.97;;;;;;;;;;5985517;29;20651;-80
2022/07/27 13:44:37;;;;;;;15.02;10.43;;;;;;;;;;5988782;29;20600;-81
2022/07/27 13:47:59;;;;;;;7.95;5.75;;;;;;;;;;5985413;29;20053;-79
2022/07/27 13:51:02;;;;;;;5.80;3.57;;;;;;;;;;5988029;29;20519;-80
2022/07/27 13:54:04;;;;;;;9.02;6.13;;;;;;;;;;6002568;29;20458;-79
2022/07/27 13:57:05;;;;;;;11.95;9.52;;;;;;;;;;5998937;29;20094;-81
2022/07/27 14:00:08;;;;;;;16.15;13.35;;;;;;;;;;6001773;29;20275;-82
2022/07/27 14:03:09;;;;;;;22.17;19.48;;;;;;;;;;5993972;29;20045;-80
2022/07/27 14:06:12;;;;;;;;;;;;;;;;;;5996216;29;20079;-82
2022/07/27 14:09:13;;;;;;;20.20;16.08;;;;;;;;;;5998591;29;19935;-80
2022/07/27 14:12:19;;;;;;;126.78;89.47;;;;;;;;;;5994990;29;20050;-82
2022/07/27 14:15:20;;;;;;;79.25;66.30;;;;;;;;;;5992943;29;20732;-77
2022/07/27 14:18:25;;;;;;;88.75;71.22;;;;;;;;;;5990802;29;20062;-76
2022/07/27 14:21:27;;;;;;;68.22;56.47;;;;;;;;;;5995052;29;20053;-77
2022/07/27 14:24:29;;;;;;;48.73;43.53;;;;;;;;;;5993970;29;20125;-77
2022/07/27 14:27:36;;;;;;;25.88;20.48;;;;;;;;;;5974460;29;20479;-79
2022/07/27 14:30:38;;;;;;;6.22;3.20;;;;;;;;;;5992957;29;20829;-77
2022/07/27 14:33:40;;;;;;;7.50;5.28;;;;;;;;;;5992071;29;20789;-77
2022/07/27 14:36:41;;;;;;;9.30;7.20;;;;;;;;;;5977890;29;20206;-77
2022/07/27 14:39:43;;;;;;;25.58;22.85;;;;;;;;;;5978602;29;20066;-77
2022/07/27 14:42:45;;;;;;;45.15;39.03;;;;;;;;;;5989501;29;20158;-76
2022/07/27 14:45:48;;;;;;;31.88;26.48;;;;;;;;;;5987954;29;20137;-76
2022/07/27 14:48:49;;;;;;;;;;;;;;;;;;5986688;29;20493;-76
2022/07/27 14:52:12;;;;;;;63.33;50.90;;;;;;;;;;5988517;29;20165;-77
2022/07/27 14:55:14;;;;;;;114.63;82.53;;;;;;;;;;5976601;29;20046;-76
2022/07/27 14:58:15;;;;;;;48.35;40.40;;;;;;;;;;5959652;29;20937;-76
2022/07/27 15:01:17;;;;;;;70.43;61.53;;;;;;;;;;5963862;29;20525;-76
2022/07/27 15:04:19;;;;;;;118.15;86.28;;;;;;;;;;5995709;29;20042;-75
2022/07/27 15:07:20;;;;;;;88.13;66.82;;;;;;;;;;5980145;29;20169;-76
2022/07/27 15:10:22;;;;;;;88.05;65.78;;;;;;;;;;5981495;29;20049;-76
2022/07/27 15:13:24;;;;;;;40.67;33.23;;;;;;;;;;5989263;29;20181;-76
2022/07/27 15:16:26;;;;;;;28.17;24.80;;;;;;;;;;5993848;29;20509;-77
2022/07/27 15:19:27;;;;;;;14.90;13.50;;;;;;;;;;5995018;29;20454;-76
2022/07/27 15:22:29;;;;;;;17.87;16.07;;;;;;;;;;5975381;29;20053;-76
2022/07/27 15:25:31;;;;;;;9.20;7.43;;;;;;;;;;5973243;29;20099;-77
2022/07/27 15:28:32;;;;;;;9.98;6.28;;;;;;;;;;5979825;29;20049;-77
2022/07/27 15:31:34;;;;;;;4.23;3.13;;;;;;;;;;5980102;29;20070;-76
2022/07/27 15:34:36;;;;;;;2.75;1.30;;;;;;;;;;5969179;29;20452;-76
2022/07/27 15:37:38;;;;;;;1.63;0.60;;;;;;;;;;5975045;29;20145;-75
2022/07/27 15:40:42;;;;;;;0.87;0.43;;;;;;;;;;5990778;29;20362;-76
2022/07/27 15:43:44;;;;;;;0.65;0.50;;;;;;;;;;5973920;29;20499;-75
2022/07/27 15:46:47;;;;;;;1.57;0.40;;;;;;;;;;5976898;29;20046;-77
2022/07/27 15:49:48;;;;;;;0.75;0.60;;;;;;;;;;5975720;29;21058;-75
2022/07/27 15:52:50;;;;;;;2.77;1.17;;;;;;;;;;5976050;29;20187;-76
2022/07/27 15:55:52;;;;;;;1.80;0.47;;;;;;;;;;5960923;29;20619;-76
2022/07/27 15:58:54;;;;;;;0.85;0.40;;;;;;;;;;5978431;29;20479;-77
2022/07/27 16:01:57;;;;;;;2.88;0.95;;;;;;;;;;5973101;29;20083;-78
2022/07/27 16:04:59;;;;;;;2.92;0.60;;;;;;;;;;5976034;29;20066;-78
2022/07/27 16:08:01;;;;;;;2.40;0.80;;;;;;;;;;5981591;29;20526;-77
2022/07/27 16:11:02;;;;;;;0.88;0.63;;;;;;;;;;5972186;29;20054;-76
2022/07/27 16:14:04;;;;;;;1.63;0.90;;;;;;;;;;5971388;29;20073;-79
2022/07/27 16:17:06;;;;;;;1.10;0.80;;;;;;;;;;5984103;29;20222;-77
2022/07/27 16:20:08;;;;;;;4.00;2.77;;;;;;;;;;5985667;29;20524;-77
2022/07/27 16:23:10;;;;;;;5.00;4.43;;;;;;;;;;5996072;29;20057;-77
2022/07/27 16:26:22;;;;;;;;;;;;;;;;;;5980072;29;20050;-77
2022/07/27 16:29:28;;;;;;;3.15;2.38;;;;;;;;;;5988330;29;19925;-79
2022/07/27 16:32:31;;;;;;;14.57;13.23;;;;;;;;;;5976965;29;20047;-77
2022/07/27 16:35:33;;;;;;;35.55;27.42;;;;;;;;;;5993239;29;20134;-78
2022/07/27 16:38:37;;;;;;;24.17;21.67;;;;;;;;;;5981929;29;20050;-77
2022/07/27 16:41:50;;;;;;;74.72;61.50;;;;;;;;;;5966627;29;20053;-77
2022/07/27 16:44:52;;;;;;;69.28;56.97;;;;;;;;;;6003465;29;20565;-76
2022/07/27 16:47:53;;;;;;;56.80;48.37;;;;;;;;;;5996605;29;20179;-77
2022/07/27 16:50:55;;;;;;;89.67;71.40;;;;;;;;;;5972945;29;20085;-77
2022/07/27 16:53:57;;;;;;;81.17;67.87;;;;;;;;;;5990213;29;20049;-76
2022/07/27 16:56:58;;;;;;;69.47;58.10;;;;;;;;;;5990265;29;20057;-78
2022/07/27 17:00:03;;;;;;;65.80;57.90;;;;;;;;;;5992576;29;20065;-77
2022/07/27 17:03:05;;;;;;;108.93;78.85;;;;;;;;;;5977320;29;20153;-77
2022/07/27 17:06:06;;;;;;;106.17;80.23;;;;;;;;;;5985715;29;20100;-77
2022/07/27 17:09:08;;;;;;;3.23;0.70;;;;;;;;;;5988105;29;20149;-78
2022/07/27 17:12:10;;;;;;;5.63;2.67;;;;;;;;;;5972189;29;20056;-78
2022/07/27 17:15:19;;;;;;;6.43;5.80;;;;;;;;;;5971999;29;20049;-77
2022/07/27 17:18:21;;;;;;;51.58;43.15;;;;;;;;;;5970432;29;20137;-78
2022/07/27 17:21:23;;;;;;;4.57;3.42;;;;;;;;;;5976388;29;20050;-78
2022/07/27 17:24:24;;;;;;;85.47;69.77;;;;;;;;;;5961103;29;20117;-78
2022/07/27 17:27:26;;;;;;;134.47;95.17;;;;;;;;;;5996161;29;20061;-78
2022/07/27 17:30:27;;;;;;;162.63;110.57;;;;;;;;;;5990793;29;20536;-77
2022/07/27 17:33:29;;;;;;;148.90;100.90;;;;;;;;;;5974311;29;20054;-78
2022/07/27 17:36:31;;;;;;;190.45;122.75;;;;;;;;;;5991256;29;20389;-77
2022/07/27 17:39:34;;;;;;;178.40;119.28;;;;;;;;;;5996517;29;20065;-78
2022/07/27 17:42:35;;;;;;;215.23;138.15;;;;;;;;;;5995297;29;20060;-78
2022/07/27 17:45:37;;;;;;;190.18;124.88;;;;;;;;;;5987857;29;20149;-78
2022/07/27 17:48:40;;;;;;;159.27;108.85;;;;;;;;;;5978580;29;20054;-78
2022/07/27 17:51:42;;;;;;;158.40;108.97;;;;;;;;;;5966901;29;20050;-78
2022/07/27 17:54:46;;;;;;;164.77;110.68;;;;;;;;;;5978041;29;20987;-79
2022/07/27 17:57:47;;;;;;;190.02;125.55;;;;;;;;;;5979963;29;20062;-79
2022/07/27 18:00:49;;;;;;;176.00;118.93;;;;;;;;;;5994747;29;20138;-78
2022/07/27 18:03:51;;;;;;;127.05;92.07;;;;;;;;;;5999117;29;20063;-79
2022/07/27 18:06:53;;;;;;;41.30;37.37;;;;;;;;;;6003052;29;20060;-79
2022/07/27 18:09:57;;;;;;;100.53;77.13;;;;;;;;;;6001558;29;20478;-79